Terminal Aerodrome Forecast
Issued by NWS

Current Version | Previous Version | Text Only | Print | Product List | Glossary On
Versions: 1 2 3 4 5 6 7 8 9 10 11 12 13 14 15 16 17 18 19 20 21 22 23 24 25 26 27
000
FTUS42 KGSP 241621 AAC
TAFAND
TAF AMD
KAND 241621Z 2416/2512 19007KT P6SM VCSH SCT017 BKN028
      TEMPO 2416/2418 SCT009 BKN017
     FM241800 19009KT P6SM SCT025 BKN035
      TEMPO 2418/2422 VRB20G30KT 3SM +TSRA BR BKN025CB
     FM242200 22010KT P6SM VCTS OVC045CB
     FM250000 23008KT P6SM BKN060=

USA.gov is the U.S. government's official web portal to all federal, state and local government web resources and services.